Smithville, Indiana
Current Conditions -  °F | °C
As of 9:34 AM on Saturday 25 Oct 2014 (Local Time) from KBMG Reporting Station
Broken Clouds Broken Clouds  
Wind Chill: 59°   Ceiling: 1700
Heat Index: 59°   Visibility: 7mi
Dew Point: 54°   Wind: 7mph
Humidity: 83%   Direction: 270°W
Pressure: 30.01"   Gusts: NA
Location:  39.07°N, 86.51°W
Report Text: KBMG 251334Z 27006KT 7SM BKN017 15/12 A3001 RMK AO2 T01500122
Loading
Personal Weather Stations






























Interactive Weather Map
Tropical Storm Tracking
New forecast layout! Learn more

10-Day Weather Forecast

Advertisements
Track Severe Weather on mobile